sensor_id;sensor_type;location;lat;lon;timestamp;P1;durP1;ratioP1;P2;durP2;ratioP2
5403;SDS011;2725;51.054;6.948;2022-08-19T00:00:03;5.2;;;4.7;;
5403;SDS011;2725;51.054;6.948;2022-08-19T00:05:01;5.2;;;4.7;;
5403;SDS011;2725;51.054;6.948;2022-08-19T00:10:01;5.2;;;4.7;;
5403;SDS011;2725;51.054;6.948;2022-08-19T00:15:01;5.1;;;4.7;;
5403;SDS011;2725;51.054;6.948;2022-08-19T00:20:02;5.1;;;4.7;;
5403;SDS011;2725;51.054;6.948;2022-08-19T00:25:01;5.0;;;4.5;;
5403;SDS011;2725;51.054;6.948;2022-08-19T00:30:02;5.0;;;4.5;;
5403;SDS011;2725;51.054;6.948;2022-08-19T00:35:01;5.0;;;4.6;;
5403;SDS011;2725;51.054;6.948;2022-08-19T00:40:02;5.0;;;4.6;;
5403;SDS011;2725;51.054;6.948;2022-08-19T00:45:02;5.0;;;4.6;;
5403;SDS011;2725;51.054;6.948;2022-08-19T00:50:01;5.0;;;4.6;;
5403;SDS011;2725;51.054;6.948;2022-08-19T00:55:03;5.2;;;4.7;;
5403;SDS011;2725;51.054;6.948;2022-08-19T01:00:03;5.2;;;4.7;;
5403;SDS011;2725;51.054;6.948;2022-08-19T01:05:03;5.3;;;4.8;;
5403;SDS011;2725;51.054;6.948;2022-08-19T01:10:01;5.3;;;4.8;;
5403;SDS011;2725;51.054;6.948;2022-08-19T01:15:02;4.6;;;4.2;;
5403;SDS011;2725;51.054;6.948;2022-08-19T01:20:02;4.6;;;4.2;;
5403;SDS011;2725;51.054;6.948;2022-08-19T01:25:01;5.1;;;4.7;;
5403;SDS011;2725;51.054;6.948;2022-08-19T01:30:02;5.1;;;4.7;;
5403;SDS011;2725;51.054;6.948;2022-08-19T01:35:02;5.1;;;4.7;;
5403;SDS011;2725;51.054;6.948;2022-08-19T01:40:02;5.1;;;4.7;;
5403;SDS011;2725;51.054;6.948;2022-08-19T01:45:02;5.5;;;5.0;;
5403;SDS011;2725;51.054;6.948;2022-08-19T01:50:01;5.5;;;5.0;;
5403;SDS011;2725;51.054;6.948;2022-08-19T01:55:02;5.1;;;4.6;;
5403;SDS011;2725;51.054;6.948;2022-08-19T02:00:03;5.1;;;4.6;;
5403;SDS011;2725;51.054;6.948;2022-08-19T02:05:02;4.9;;;4.5;;
5403;SDS011;2725;51.054;6.948;2022-08-19T02:10:05;4.9;;;4.5;;
5403;SDS011;2725;51.054;6.948;2022-08-19T02:15:02;4.9;;;4.5;;
5403;SDS011;2725;51.054;6.948;2022-08-19T02:20:02;4.9;;;4.5;;
5403;SDS011;2725;51.054;6.948;2022-08-19T02:25:02;5.1;;;4.7;;
5403;SDS011;2725;51.054;6.948;2022-08-19T02:30:03;5.1;;;4.7;;
5403;SDS011;2725;51.054;6.948;2022-08-19T02:35:01;4.8;;;4.4;;
5403;SDS011;2725;51.054;6.948;2022-08-19T02:40:02;4.8;;;4.4;;
5403;SDS011;2725;51.054;6.948;2022-08-19T02:45:01;4.7;;;4.3;;
5403;SDS011;2725;51.054;6.948;2022-08-19T02:50:02;4.7;;;4.3;;
5403;SDS011;2725;51.054;6.948;2022-08-19T02:55:01;4.8;;;4.4;;
5403;SDS011;2725;51.054;6.948;2022-08-19T03:00:03;4.8;;;4.4;;
5403;SDS011;2725;51.054;6.948;2022-08-19T03:05:02;4.8;;;4.3;;
5403;SDS011;2725;51.054;6.948;2022-08-19T03:10:02;4.8;;;4.3;;
5403;SDS011;2725;51.054;6.948;2022-08-19T03:15:02;4.8;;;4.4;;
5403;SDS011;2725;51.054;6.948;2022-08-19T03:20:01;4.8;;;4.4;;
5403;SDS011;2725;51.054;6.948;2022-08-19T03:25:02;4.9;;;4.5;;
5403;SDS011;2725;51.054;6.948;2022-08-19T03:30:02;4.9;;;4.5;;
5403;SDS011;2725;51.054;6.948;2022-08-19T03:35:02;5.1;;;4.6;;
5403;SDS011;2725;51.054;6.948;2022-08-19T03:40:01;5.1;;;4.6;;
5403;SDS011;2725;51.054;6.948;2022-08-19T03:45:02;5.1;;;4.7;;
5403;SDS011;2725;51.054;6.948;2022-08-19T03:50:02;5.1;;;4.7;;
5403;SDS011;2725;51.054;6.948;2022-08-19T03:55:02;4.9;;;4.5;;
5403;SDS011;2725;51.054;6.948;2022-08-19T04:00:03;4.9;;;4.5;;
5403;SDS011;2725;51.054;6.948;2022-08-19T04:05:01;5.3;;;4.8;;
5403;SDS011;2725;51.054;6.948;2022-08-19T04:10:01;5.3;;;4.8;;
5403;SDS011;2725;51.054;6.948;2022-08-19T04:15:01;5.2;;;4.7;;
5403;SDS011;2725;51.054;6.948;2022-08-19T04:20:01;5.2;;;4.7;;
5403;SDS011;2725;51.054;6.948;2022-08-19T04:25:02;4.7;;;4.3;;
5403;SDS011;2725;51.054;6.948;2022-08-19T04:30:03;4.7;;;4.3;;
5403;SDS011;2725;51.054;6.948;2022-08-19T04:35:02;4.8;;;4.3;;
5403;SDS011;2725;51.054;6.948;2022-08-19T04:40:02;4.8;;;4.3;;
5403;SDS011;2725;51.054;6.948;2022-08-19T04:45:02;4.6;;;4.2;;
5403;SDS011;2725;51.054;6.948;2022-08-19T04:50:01;4.6;;;4.2;;
5403;SDS011;2725;51.054;6.948;2022-08-19T04:55:01;4.8;;;4.4;;
5403;SDS011;2725;51.054;6.948;2022-08-19T05:00:01;4.8;;;4.4;;
5403;SDS011;2725;51.054;6.948;2022-08-19T05:05:02;5.3;;;4.7;;
5403;SDS011;2725;51.054;6.948;2022-08-19T05:10:03;5.3;;;4.7;;
5403;SDS011;2725;51.054;6.948;2022-08-19T05:15:01;4.5;;;4.1;;
5403;SDS011;2725;51.054;6.948;2022-08-19T05:20:03;4.5;;;4.1;;
5403;SDS011;2725;51.054;6.948;2022-08-19T05:25:06;4.4;;;4.0;;
5403;SDS011;2725;51.054;6.948;2022-08-19T05:30:01;4.4;;;4.0;;
5403;SDS011;2725;51.054;6.948;2022-08-19T05:35:02;5.9;;;5.3;;
5403;SDS011;2725;51.054;6.948;2022-08-19T05:40:01;5.9;;;5.3;;
5403;SDS011;2725;51.054;6.948;2022-08-19T05:45:02;9.3;;;8.4;;
5403;SDS011;2725;51.054;6.948;2022-08-19T05:50:01;9.3;;;8.4;;
5403;SDS011;2725;51.054;6.948;2022-08-19T05:55:01;8.4;;;7.6;;
5403;SDS011;2725;51.054;6.948;2022-08-19T06:00:03;8.4;;;7.6;;
5403;SDS011;2725;51.054;6.948;2022-08-19T06:05:02;8.5;;;7.7;;
5403;SDS011;2725;51.054;6.948;2022-08-19T06:10:03;8.5;;;7.7;;
5403;SDS011;2725;51.054;6.948;2022-08-19T06:15:03;10.4;;;8.9;;
5403;SDS011;2725;51.054;6.948;2022-08-19T06:20:04;10.4;;;8.9;;
5403;SDS011;2725;51.054;6.948;2022-08-19T06:25:01;10.0;;;8.9;;
5403;SDS011;2725;51.054;6.948;2022-08-19T06:30:02;10.0;;;8.9;;
5403;SDS011;2725;51.054;6.948;2022-08-19T06:35:01;12.4;;;11.1;;
5403;SDS011;2725;51.054;6.948;2022-08-19T06:40:02;12.4;;;11.1;;
5403;SDS011;2725;51.054;6.948;2022-08-19T06:45:02;14.4;;;12.2;;
5403;SDS011;2725;51.054;6.948;2022-08-19T06:50:01;14.4;;;12.2;;
5403;SDS011;2725;51.054;6.948;2022-08-19T06:55:01;12.6;;;11.3;;
5403;SDS011;2725;51.054;6.948;2022-08-19T07:00:03;12.6;;;11.3;;
5403;SDS011;2725;51.054;6.948;2022-08-19T07:05:02;12.5;;;11.2;;
5403;SDS011;2725;51.054;6.948;2022-08-19T07:10:01;12.5;;;11.2;;
5403;SDS011;2725;51.054;6.948;2022-08-19T07:15:03;13.2;;;11.8;;
5403;SDS011;2725;51.054;6.948;2022-08-19T07:20:02;13.2;;;11.8;;
5403;SDS011;2725;51.054;6.948;2022-08-19T07:25:01;12.1;;;10.9;;
5403;SDS011;2725;51.054;6.948;2022-08-19T07:30:02;12.1;;;10.9;;
5403;SDS011;2725;51.054;6.948;2022-08-19T07:35:01;7.3;;;6.6;;
5403;SDS011;2725;51.054;6.948;2022-08-19T07:40:03;7.3;;;6.6;;
5403;SDS011;2725;51.054;6.948;2022-08-19T07:45:01;9.8;;;8.8;;
5403;SDS011;2725;51.054;6.948;2022-08-19T07:50:02;9.8;;;8.8;;
5403;SDS011;2725;51.054;6.948;2022-08-19T07:55:01;9.5;;;8.3;;
5403;SDS011;2725;51.054;6.948;2022-08-19T08:00:03;9.5;;;8.3;;
5403;SDS011;2725;51.054;6.948;2022-08-19T08:05:01;9.3;;;8.3;;
5403;SDS011;2725;51.054;6.948;2022-08-19T08:10:03;9.3;;;8.3;;
5403;SDS011;2725;51.054;6.948;2022-08-19T08:15:04;9.5;;;8.3;;
5403;SDS011;2725;51.054;6.948;2022-08-19T08:20:03;9.5;;;8.3;;
5403;SDS011;2725;51.054;6.948;2022-08-19T08:25:03;12.1;;;11.0;;
5403;SDS011;2725;51.054;6.948;2022-08-19T08:30:01;12.1;;;11.0;;
5403;SDS011;2725;51.054;6.948;2022-08-19T08:35:01;11.4;;;9.7;;
5403;SDS011;2725;51.054;6.948;2022-08-19T08:40:03;11.4;;;9.7;;
5403;SDS011;2725;51.054;6.948;2022-08-19T08:45:03;11.4;;;9.7;;
5403;SDS011;2725;51.054;6.948;2022-08-19T08:50:04;11.4;;;9.7;;
5403;SDS011;2725;51.054;6.948;2022-08-19T08:55:05;14.8;;;13.2;;
5403;SDS011;2725;51.054;6.948;2022-08-19T09:00:03;14.8;;;13.2;;
5403;SDS011;2725;51.054;6.948;2022-08-19T09:05:01;11.3;;;9.7;;
5403;SDS011;2725;51.054;6.948;2022-08-19T09:10:04;11.3;;;9.7;;
5403;SDS011;2725;51.054;6.948;2022-08-19T09:15:03;15.3;;;13.8;;
5403;SDS011;2725;51.054;6.948;2022-08-19T09:20:04;15.3;;;13.8;;
5403;SDS011;2725;51.054;6.948;2022-08-19T09:25:01;15.2;;;13.7;;
5403;SDS011;2725;51.054;6.948;2022-08-19T09:30:02;15.2;;;13.7;;
5403;SDS011;2725;51.054;6.948;2022-08-19T09:35:01;15.2;;;13.6;;
5403;SDS011;2725;51.054;6.948;2022-08-19T09:40:02;15.2;;;13.6;;
5403;SDS011;2725;51.054;6.948;2022-08-19T09:45:02;11.3;;;8.9;;
5403;SDS011;2725;51.054;6.948;2022-08-19T09:50:01;11.3;;;8.9;;
5403;SDS011;2725;51.054;6.948;2022-08-19T09:55:02;11.0;;;8.9;;
5403;SDS011;2725;51.054;6.948;2022-08-19T10:00:03;11.0;;;8.9;;
5403;SDS011;2725;51.054;6.948;2022-08-19T10:05:01;11.3;;;10.2;;
5403;SDS011;2725;51.054;6.948;2022-08-19T10:10:03;11.3;;;10.2;;
5403;SDS011;2725;51.054;6.948;2022-08-19T10:15:02;11.3;;;9.5;;
5403;SDS011;2725;51.054;6.948;2022-08-19T10:20:01;11.3;;;9.5;;
5403;SDS011;2725;51.054;6.948;2022-08-19T10:25:03;7.9;;;7.1;;
5403;SDS011;2725;51.054;6.948;2022-08-19T10:30:01;7.9;;;7.1;;
5403;SDS011;2725;51.054;6.948;2022-08-19T10:35:02;7.4;;;6.2;;
5403;SDS011;2725;51.054;6.948;2022-08-19T10:40:02;7.4;;;6.2;;
5403;SDS011;2725;51.054;6.948;2022-08-19T10:45:01;6.8;;;5.8;;
5403;SDS011;2725;51.054;6.948;2022-08-19T10:50:02;6.8;;;5.8;;
5403;SDS011;2725;51.054;6.948;2022-08-19T10:55:01;5.5;;;4.9;;
5403;SDS011;2725;51.054;6.948;2022-08-19T11:00:01;5.5;;;4.9;;
5403;SDS011;2725;51.054;6.948;2022-08-19T11:05:01;5.5;;;4.9;;
5403;SDS011;2725;51.054;6.948;2022-08-19T11:10:01;5.5;;;4.9;;
5403;SDS011;2725;51.054;6.948;2022-08-19T11:15:01;5.2;;;4.5;;
5403;SDS011;2725;51.054;6.948;2022-08-19T11:20:02;5.2;;;4.5;;
5403;SDS011;2725;51.054;6.948;2022-08-19T11:25:01;6.3;;;5.7;;
5403;SDS011;2725;51.054;6.948;2022-08-19T11:30:02;6.3;;;5.7;;
5403;SDS011;2725;51.054;6.948;2022-08-19T11:35:01;6.1;;;5.0;;
5403;SDS011;2725;51.054;6.948;2022-08-19T11:40:01;6.1;;;5.0;;
5403;SDS011;2725;51.054;6.948;2022-08-19T11:45:02;6.0;;;5.5;;
5403;SDS011;2725;51.054;6.948;2022-08-19T11:50:02;6.0;;;5.5;;
5403;SDS011;2725;51.054;6.948;2022-08-19T11:55:01;6.1;;;5.5;;
5403;SDS011;2725;51.054;6.948;2022-08-19T12:00:02;6.1;;;5.5;;
5403;SDS011;2725;51.054;6.948;2022-08-19T12:05:01;5.6;;;5.1;;
5403;SDS011;2725;51.054;6.948;2022-08-19T12:10:02;5.6;;;5.1;;
5403;SDS011;2725;51.054;6.948;2022-08-19T12:15:02;7.0;;;5.1;;
5403;SDS011;2725;51.054;6.948;2022-08-19T12:20:01;7.0;;;5.1;;
5403;SDS011;2725;51.054;6.948;2022-08-19T12:25:02;5.0;;;4.5;;
5403;SDS011;2725;51.054;6.948;2022-08-19T12:30:02;5.0;;;4.5;;
5403;SDS011;2725;51.054;6.948;2022-08-19T12:35:02;5.0;;;4.6;;
5403;SDS011;2725;51.054;6.948;2022-08-19T12:40:02;5.0;;;4.6;;
5403;SDS011;2725;51.054;6.948;2022-08-19T12:45:01;5.3;;;4.6;;
5403;SDS011;2725;51.054;6.948;2022-08-19T12:50:02;5.3;;;4.6;;
5403;SDS011;2725;51.054;6.948;2022-08-19T12:55:02;5.2;;;4.6;;
5403;SDS011;2725;51.054;6.948;2022-08-19T13:00:06;5.2;;;4.6;;
5403;SDS011;2725;51.054;6.948;2022-08-19T13:05:02;4.7;;;4.3;;
5403;SDS011;2725;51.054;6.948;2022-08-19T13:10:02;4.7;;;4.3;;
5403;SDS011;2725;51.054;6.948;2022-08-19T13:15:02;5.8;;;5.1;;
5403;SDS011;2725;51.054;6.948;2022-08-19T13:20:01;5.8;;;5.1;;
5403;SDS011;2725;51.054;6.948;2022-08-19T13:25:02;5.3;;;4.8;;
5403;SDS011;2725;51.054;6.948;2022-08-19T13:30:02;5.3;;;4.8;;
5403;SDS011;2725;51.054;6.948;2022-08-19T13:35:02;5.8;;;4.6;;
5403;SDS011;2725;51.054;6.948;2022-08-19T13:40:01;5.8;;;4.6;;
5403;SDS011;2725;51.054;6.948;2022-08-19T13:45:01;4.8;;;4.2;;
5403;SDS011;2725;51.054;6.948;2022-08-19T13:50:02;4.8;;;4.2;;
5403;SDS011;2725;51.054;6.948;2022-08-19T13:55:01;5.1;;;4.2;;
5403;SDS011;2725;51.054;6.948;2022-08-19T14:00:03;5.1;;;4.2;;
5403;SDS011;2725;51.054;6.948;2022-08-19T14:05:01;5.0;;;3.9;;
5403;SDS011;2725;51.054;6.948;2022-08-19T14:10:02;5.0;;;3.9;;
5403;SDS011;2725;51.054;6.948;2022-08-19T14:15:01;5.5;;;3.8;;
5403;SDS011;2725;51.054;6.948;2022-08-19T14:20:02;5.5;;;3.8;;
5403;SDS011;2725;51.054;6.948;2022-08-19T14:25:02;3.6;;;3.1;;
5403;SDS011;2725;51.054;6.948;2022-08-19T14:30:03;3.6;;;3.1;;
5403;SDS011;2725;51.054;6.948;2022-08-19T14:35:02;3.9;;;3.5;;
5403;SDS011;2725;51.054;6.948;2022-08-19T14:40:02;3.9;;;3.5;;
5403;SDS011;2725;51.054;6.948;2022-08-19T14:45:01;3.3;;;3.0;;
5403;SDS011;2725;51.054;6.948;2022-08-19T14:50:02;3.3;;;3.0;;
5403;SDS011;2725;51.054;6.948;2022-08-19T14:55:01;3.3;;;3.0;;
5403;SDS011;2725;51.054;6.948;2022-08-19T15:00:03;3.3;;;3.0;;
5403;SDS011;2725;51.054;6.948;2022-08-19T15:05:01;3.2;;;2.7;;
5403;SDS011;2725;51.054;6.948;2022-08-19T15:10:02;3.2;;;2.7;;
5403;SDS011;2725;51.054;6.948;2022-08-19T15:15:01;2.9;;;2.6;;
5403;SDS011;2725;51.054;6.948;2022-08-19T15:20:02;2.9;;;2.6;;
5403;SDS011;2725;51.054;6.948;2022-08-19T15:25:01;2.9;;;2.4;;
5403;SDS011;2725;51.054;6.948;2022-08-19T15:30:02;2.9;;;2.4;;
5403;SDS011;2725;51.054;6.948;2022-08-19T15:35:01;3.2;;;2.3;;
5403;SDS011;2725;51.054;6.948;2022-08-19T15:40:02;3.2;;;2.3;;
5403;SDS011;2725;51.054;6.948;2022-08-19T15:45:03;2.6;;;2.4;;
5403;SDS011;2725;51.054;6.948;2022-08-19T15:50:04;2.6;;;2.4;;
5403;SDS011;2725;51.054;6.948;2022-08-19T15:55:03;2.5;;;2.0;;
5403;SDS011;2725;51.054;6.948;2022-08-19T16:00:02;2.5;;;2.0;;
5403;SDS011;2725;51.054;6.948;2022-08-19T16:05:02;2.5;;;2.0;;
5403;SDS011;2725;51.054;6.948;2022-08-19T16:10:02;2.5;;;2.0;;
5403;SDS011;2725;51.054;6.948;2022-08-19T16:15:01;2.8;;;2.3;;
5403;SDS011;2725;51.054;6.948;2022-08-19T16:20:03;2.8;;;2.3;;
5403;SDS011;2725;51.054;6.948;2022-08-19T16:25:02;3.0;;;2.3;;
5403;SDS011;2725;51.054;6.948;2022-08-19T16:30:01;3.0;;;2.3;;
5403;SDS011;2725;51.054;6.948;2022-08-19T16:35:03;2.3;;;2.1;;
5403;SDS011;2725;51.054;6.948;2022-08-19T16:40:02;2.3;;;2.1;;
5403;SDS011;2725;51.054;6.948;2022-08-19T16:45:01;2.3;;;2.1;;
5403;SDS011;2725;51.054;6.948;2022-08-19T16:50:02;2.3;;;2.1;;
5403;SDS011;2725;51.054;6.948;2022-08-19T16:55:02;4.2;;;2.2;;
5403;SDS011;2725;51.054;6.948;2022-08-19T17:00:03;4.2;;;2.2;;
5403;SDS011;2725;51.054;6.948;2022-08-19T17:05:02;5.1;;;2.3;;
5403;SDS011;2725;51.054;6.948;2022-08-19T17:10:02;5.1;;;2.3;;
5403;SDS011;2725;51.054;6.948;2022-08-19T17:15:01;3.2;;;2.0;;
5403;SDS011;2725;51.054;6.948;2022-08-19T17:20:02;3.2;;;2.0;;
5403;SDS011;2725;51.054;6.948;2022-08-19T17:25:01;2.8;;;1.8;;
5403;SDS011;2725;51.054;6.948;2022-08-19T17:30:02;2.8;;;1.8;;
5403;SDS011;2725;51.054;6.948;2022-08-19T17:35:01;2.8;;;1.8;;
5403;SDS011;2725;51.054;6.948;2022-08-19T17:40:02;2.8;;;1.8;;
5403;SDS011;2725;51.054;6.948;2022-08-19T17:45:02;2.9;;;2.4;;
5403;SDS011;2725;51.054;6.948;2022-08-19T17:50:01;2.9;;;2.4;;
5403;SDS011;2725;51.054;6.948;2022-08-19T17:55:02;2.3;;;2.1;;
5403;SDS011;2725;51.054;6.948;2022-08-19T18:00:03;2.3;;;2.1;;
5403;SDS011;2725;51.054;6.948;2022-08-19T18:05:03;2.3;;;2.1;;
5403;SDS011;2725;51.054;6.948;2022-08-19T18:10:01;2.3;;;2.1;;
5403;SDS011;2725;51.054;6.948;2022-08-19T18:15:02;2.7;;;2.0;;
5403;SDS011;2725;51.054;6.948;2022-08-19T18:20:03;2.7;;;2.0;;
5403;SDS011;2725;51.054;6.948;2022-08-19T18:25:03;2.7;;;2.0;;
5403;SDS011;2725;51.054;6.948;2022-08-19T18:30:03;2.7;;;2.0;;
5403;SDS011;2725;51.054;6.948;2022-08-19T18:35:02;2.2;;;1.9;;
5403;SDS011;2725;51.054;6.948;2022-08-19T18:40:03;2.2;;;1.9;;
5403;SDS011;2725;51.054;6.948;2022-08-19T18:45:02;1.9;;;1.7;;
5403;SDS011;2725;51.054;6.948;2022-08-19T18:50:01;1.9;;;1.7;;
5403;SDS011;2725;51.054;6.948;2022-08-19T18:55:02;1.9;;;1.7;;
5403;SDS011;2725;51.054;6.948;2022-08-19T19:00:03;1.9;;;1.7;;
5403;SDS011;2725;51.054;6.948;2022-08-19T19:05:02;2.2;;;1.4;;
5403;SDS011;2725;51.054;6.948;2022-08-19T19:10:01;2.2;;;1.4;;
5403;SDS011;2725;51.054;6.948;2022-08-19T19:15:01;1.7;;;1.4;;
5403;SDS011;2725;51.054;6.948;2022-08-19T19:20:02;1.7;;;1.4;;
5403;SDS011;2725;51.054;6.948;2022-08-19T19:25:01;1.6;;;1.4;;
5403;SDS011;2725;51.054;6.948;2022-08-19T19:30:02;1.6;;;1.4;;
5403;SDS011;2725;51.054;6.948;2022-08-19T19:35:03;1.7;;;1.5;;
5403;SDS011;2725;51.054;6.948;2022-08-19T19:40:02;1.7;;;1.5;;
5403;SDS011;2725;51.054;6.948;2022-08-19T19:45:01;1.7;;;1.6;;
5403;SDS011;2725;51.054;6.948;2022-08-19T19:50:01;1.7;;;1.6;;
5403;SDS011;2725;51.054;6.948;2022-08-19T19:55:01;1.8;;;1.5;;
5403;SDS011;2725;51.054;6.948;2022-08-19T20:00:02;1.8;;;1.5;;
5403;SDS011;2725;51.054;6.948;2022-08-19T20:05:01;1.8;;;1.5;;
5403;SDS011;2725;51.054;6.948;2022-08-19T20:10:02;1.8;;;1.5;;
5403;SDS011;2725;51.054;6.948;2022-08-19T20:15:01;2.4;;;1.5;;
5403;SDS011;2725;51.054;6.948;2022-08-19T20:20:01;2.4;;;1.5;;
5403;SDS011;2725;51.054;6.948;2022-08-19T20:25:01;2.0;;;1.4;;
5403;SDS011;2725;51.054;6.948;2022-08-19T20:30:01;2.0;;;1.4;;
5403;SDS011;2725;51.054;6.948;2022-08-19T20:35:01;1.9;;;1.4;;
5403;SDS011;2725;51.054;6.948;2022-08-19T20:40:01;1.9;;;1.4;;
5403;SDS011;2725;51.054;6.948;2022-08-19T20:45:02;2.3;;;1.4;;
5403;SDS011;2725;51.054;6.948;2022-08-19T20:50:01;2.3;;;1.4;;
5403;SDS011;2725;51.054;6.948;2022-08-19T20:55:01;1.4;;;1.3;;
5403;SDS011;2725;51.054;6.948;2022-08-19T21:00:03;1.4;;;1.3;;
5403;SDS011;2725;51.054;6.948;2022-08-19T21:05:02;2.1;;;1.5;;
5403;SDS011;2725;51.054;6.948;2022-08-19T21:10:01;2.1;;;1.5;;
5403;SDS011;2725;51.054;6.948;2022-08-19T21:15:01;2.4;;;1.5;;
5403;SDS011;2725;51.054;6.948;2022-08-19T21:20:02;2.4;;;1.5;;
5403;SDS011;2725;51.054;6.948;2022-08-19T21:25:01;1.3;;;1.2;;
5403;SDS011;2725;51.054;6.948;2022-08-19T21:30:03;1.3;;;1.2;;
5403;SDS011;2725;51.054;6.948;2022-08-19T21:35:01;2.6;;;1.2;;
5403;SDS011;2725;51.054;6.948;2022-08-19T21:40:02;2.6;;;1.2;;
5403;SDS011;2725;51.054;6.948;2022-08-19T21:45:02;2.7;;;1.2;;
5403;SDS011;2725;51.054;6.948;2022-08-19T21:50:03;2.7;;;1.2;;
5403;SDS011;2725;51.054;6.948;2022-08-19T21:55:01;1.8;;;1.4;;
5403;SDS011;2725;51.054;6.948;2022-08-19T22:00:04;1.8;;;1.4;;
5403;SDS011;2725;51.054;6.948;2022-08-19T22:05:02;1.3;;;1.0;;
5403;SDS011;2725;51.054;6.948;2022-08-19T22:10:01;1.3;;;1.0;;
5403;SDS011;2725;51.054;6.948;2022-08-19T22:15:02;1.3;;;1.0;;
5403;SDS011;2725;51.054;6.948;2022-08-19T22:20:02;1.3;;;1.0;;
5403;SDS011;2725;51.054;6.948;2022-08-19T22:25:05;1.1;;;1.0;;
5403;SDS011;2725;51.054;6.948;2022-08-19T22:30:03;1.1;;;1.0;;
5403;SDS011;2725;51.054;6.948;2022-08-19T22:35:02;1.7;;;1.1;;
5403;SDS011;2725;51.054;6.948;2022-08-19T22:40:02;1.7;;;1.1;;
5403;SDS011;2725;51.054;6.948;2022-08-19T22:45:02;1.6;;;1.0;;
5403;SDS011;2725;51.054;6.948;2022-08-19T22:50:02;1.6;;;1.0;;
5403;SDS011;2725;51.054;6.948;2022-08-19T22:55:03;1.6;;;1.0;;
5403;SDS011;2725;51.054;6.948;2022-08-19T23:00:02;1.6;;;1.0;;
5403;SDS011;2725;51.054;6.948;2022-08-19T23:05:01;1.5;;;1.0;;
5403;SDS011;2725;51.054;6.948;2022-08-19T23:10:04;1.5;;;1.0;;
5403;SDS011;2725;51.054;6.948;2022-08-19T23:15:03;1.5;;;1.0;;
5403;SDS011;2725;51.054;6.948;2022-08-19T23:20:02;1.5;;;1.0;;
5403;SDS011;2725;51.054;6.948;2022-08-19T23:25:03;1.4;;;1.1;;
5403;SDS011;2725;51.054;6.948;2022-08-19T23:30:02;1.4;;;1.1;;
5403;SDS011;2725;51.054;6.948;2022-08-19T23:35:02;1.4;;;1.1;;
5403;SDS011;2725;51.054;6.948;2022-08-19T23:40:02;1.4;;;1.1;;
5403;SDS011;2725;51.054;6.948;2022-08-19T23:45:03;1.4;;;1.0;;
5403;SDS011;2725;51.054;6.948;2022-08-19T23:50:02;1.4;;;1.0;;
5403;SDS011;2725;51.054;6.948;2022-08-19T23:55:02;1.5;;;1.2;;
